Terminal Aerodrome Forecast
Issued by NWS Louisville, KY

Home | Current Version | Previous Version | Text Only | Print | Product List | Glossary On
Versions: 1 2 3 4 5 6 7 8 9 10 11 12 13 14 15 16 17 18
134
FTUS43 KLMK 031120
TAFSDF
TAF
KSDF 031120Z 0312/0418 32004KT P6SM OVC035
     FM031700 32005KT P6SM OVC210
     FM032300 05004KT P6SM OVC080
     FM041200 10005KT P6SM -RA OVC040=

USA.gov is the U.S. government's official web portal to all federal, state and local government web resources and services.